createdAt,value
2022-10-16T00:01:46.781Z,1.80
2022-10-16T00:04:15.519Z,1.23
2022-10-16T00:06:45.336Z,1.40
2022-10-16T00:09:13.488Z,1.47
2022-10-16T00:11:43.305Z,1.33
2022-10-16T00:14:16.316Z,1.60
2022-10-16T00:16:44.957Z,0.90
2022-10-16T00:19:13.879Z,0.95
2022-10-16T00:21:43.475Z,1.07
2022-10-16T00:24:13.568Z,1.10
2022-10-16T00:26:42.949Z,0.80
2022-10-16T00:29:11.407Z,0.93
2022-10-16T00:31:40.298Z,1.10
2022-10-16T00:34:08.858Z,1.10
2022-10-16T00:36:37.289Z,0.93
2022-10-16T00:39:06.820Z,0.85
2022-10-16T00:41:36.299Z,0.63
2022-10-16T00:44:46.391Z,1.27
2022-10-16T00:47:23.362Z,0.70
2022-10-16T00:49:54.064Z,0.80
2022-10-16T00:52:22.595Z,1.00
2022-10-16T00:54:54.626Z,0.80
2022-10-16T00:57:23.362Z,1.20
2022-10-16T00:59:54.051Z,0.73
2022-10-16T01:02:22.251Z,1.10
2022-10-16T01:04:54.191Z,1.00
2022-10-16T01:07:38.629Z,1.00
2022-10-16T01:10:20.841Z,0.80
2022-10-16T01:12:57.341Z,1.00
2022-10-16T01:15:36.180Z,1.20
2022-10-16T01:18:12.376Z,1.43
2022-10-16T01:20:53.357Z,1.43
2022-10-16T01:23:41.522Z,1.47
2022-10-16T01:26:39.676Z,1.50
2022-10-16T01:29:18.872Z,1.45
2022-10-16T01:31:57.044Z,1.20
2022-10-16T01:34:37.268Z,1.00
2022-10-16T01:37:17.287Z,1.20
2022-10-16T01:39:51.716Z,1.10
2022-10-16T01:42:26.555Z,1.00
2022-10-16T01:44:58.692Z,1.10
2022-10-16T01:47:29.695Z,1.00
2022-10-16T01:50:01.986Z,1.05
2022-10-16T01:52:31.700Z,1.07
2022-10-16T01:55:04.703Z,0.80
2022-10-16T01:57:35.962Z,0.65
2022-10-16T02:00:13.841Z,0.93
2022-10-16T02:02:47.067Z,0.70
2022-10-16T02:05:24.414Z,0.67
2022-10-16T02:07:52.830Z,0.73
2022-10-16T02:10:21.150Z,1.00
2022-10-16T02:12:58.302Z,1.10
2022-10-16T02:15:28.400Z,0.67
2022-10-16T02:17:56.459Z,0.70
2022-10-16T02:20:31.113Z,0.50
2022-10-16T02:23:00.646Z,0.70
2022-10-16T02:25:37.203Z,0.80
2022-10-16T02:28:14.565Z,0.87
2022-10-16T02:30:49.520Z,1.00
2022-10-16T02:33:21.398Z,0.82
2022-10-16T02:35:53.035Z,0.73
2022-10-16T02:38:23.412Z,0.83
2022-10-16T02:40:52.024Z,0.77
2022-10-16T02:43:21.706Z,0.83
2022-10-16T02:45:51.509Z,0.70
2022-10-16T02:48:19.740Z,0.60
2022-10-16T02:50:48.315Z,0.90
2022-10-16T02:53:16.378Z,1.03
2022-10-16T02:55:44.609Z,0.87
2022-10-16T02:58:12.715Z,0.67
2022-10-16T03:00:41.577Z,0.60
2022-10-16T03:03:11.533Z,0.80
2022-10-16T03:05:39.649Z,0.60
2022-10-16T03:08:07.840Z,0.70
2022-10-16T03:10:36.272Z,1.00
2022-10-16T03:13:04.560Z,0.80
2022-10-16T03:15:33.477Z,0.80
2022-10-16T03:18:02.771Z,0.93
2022-10-16T03:20:32.636Z,0.77
2022-10-16T03:23:00.729Z,0.93
2022-10-16T03:25:29.210Z,0.70
2022-10-16T03:27:57.297Z,0.73
2022-10-16T03:30:26.074Z,0.90
2022-10-16T03:32:55.160Z,0.60
2022-10-16T03:35:24.273Z,0.80
2022-10-16T03:37:53.864Z,0.80
2022-10-16T03:40:22.406Z,1.00
2022-10-16T03:42:51.318Z,0.90
2022-10-16T03:45:19.586Z,0.97
2022-10-16T03:47:48.989Z,0.90
2022-10-16T03:50:17.373Z,1.00
2022-10-16T03:52:45.863Z,0.87
2022-10-16T03:55:15.643Z,1.07
2022-10-16T03:57:48.981Z,0.85
2022-10-16T04:00:18.149Z,1.10
2022-10-16T04:05:19.597Z,1.00
2022-10-16T04:07:47.801Z,0.73
2022-10-16T04:10:18.253Z,1.10
2022-10-16T04:12:46.569Z,1.20
2022-10-16T04:15:14.958Z,0.86
2022-10-16T04:17:43.057Z,1.00
2022-10-16T04:20:11.545Z,1.03
2022-10-16T04:22:40.101Z,1.23
2022-10-16T04:25:09.417Z,1.40
2022-10-16T04:27:42.223Z,1.33
2022-10-16T04:30:13.808Z,1.10
2022-10-16T04:32:41.980Z,1.67
2022-10-16T04:35:11.139Z,1.90
2022-10-16T04:37:39.482Z,1.70
2022-10-16T04:40:08.941Z,1.40
2022-10-16T04:42:38.548Z,1.23
2022-10-16T04:45:12.047Z,1.10
2022-10-16T04:47:43.589Z,1.13
2022-10-16T04:50:11.782Z,1.37
2022-10-16T04:52:40.216Z,1.30
2022-10-16T04:55:09.616Z,1.50
2022-10-16T04:57:39.495Z,1.80
2022-10-16T05:00:09.949Z,1.70
2022-10-16T05:02:39.001Z,1.13
2022-10-16T05:05:08.704Z,1.57
2022-10-16T05:07:37.537Z,1.17
2022-10-16T05:10:06.467Z,1.33
2022-10-16T05:12:35.715Z,1.07
2022-10-16T05:15:07.368Z,1.10
2022-10-16T05:17:37.350Z,1.33
2022-10-16T05:20:09.362Z,1.50
2022-10-16T05:22:38.161Z,1.27
2022-10-16T05:25:07.213Z,1.50
2022-10-16T05:27:35.600Z,1.00
2022-10-16T05:30:08.567Z,1.03
2022-10-16T05:32:38.102Z,2.03
2022-10-16T05:35:10.147Z,1.03
2022-10-16T05:37:41.194Z,1.17
2022-10-16T05:40:11.043Z,1.20
2022-10-16T05:42:39.426Z,1.30
2022-10-16T05:45:11.983Z,1.30
2022-10-16T05:47:40.990Z,1.20
2022-10-16T05:50:10.834Z,1.20
2022-10-16T05:52:38.958Z,1.10
2022-10-16T05:55:12.862Z,1.40
2022-10-16T05:57:40.924Z,1.20
2022-10-16T06:00:12.375Z,1.40
2022-10-16T06:02:43.596Z,1.27
2022-10-16T06:05:11.715Z,1.03
2022-10-16T06:07:40.314Z,2.37
2022-10-16T06:10:10.196Z,1.30
2022-10-16T06:12:38.753Z,1.40
2022-10-16T06:15:08.302Z,1.60
2022-10-16T06:17:37.749Z,1.63
2022-10-16T06:20:07.362Z,1.80
2022-10-16T06:22:35.487Z,2.00
2022-10-16T06:25:04.485Z,2.20
2022-10-16T06:27:32.597Z,1.63
2022-10-16T06:30:01.596Z,1.37
2022-10-16T06:32:30.017Z,1.83
2022-10-16T06:35:00.359Z,1.97
2022-10-16T06:37:29.986Z,1.77
2022-10-16T06:39:58.277Z,2.00
2022-10-16T06:42:26.642Z,6.50
2022-10-16T06:44:55.791Z,3.47
2022-10-16T06:47:24.060Z,2.53
2022-10-16T06:49:54.353Z,3.37
2022-10-16T06:52:24.321Z,3.30
2022-10-16T06:54:53.687Z,3.37
2022-10-16T06:57:21.794Z,3.97
2022-10-16T06:59:54.523Z,3.63
2022-10-16T07:02:23.891Z,3.40
2022-10-16T07:04:52.717Z,3.13
2022-10-16T07:07:20.809Z,3.27
2022-10-16T07:09:50.974Z,3.03
2022-10-16T07:12:19.205Z,2.90
2022-10-16T07:14:47.700Z,3.10
2022-10-16T07:17:15.751Z,2.93
2022-10-16T07:19:44.046Z,3.70
2022-10-16T07:22:12.500Z,3.57
2022-10-16T07:24:41.003Z,4.20
2022-10-16T07:27:10.568Z,6.17
2022-10-16T07:29:39.390Z,4.63
2022-10-16T07:32:07.807Z,4.30
2022-10-16T07:34:36.184Z,3.33
2022-10-16T07:37:04.506Z,2.20
2022-10-16T07:39:32.723Z,1.60
2022-10-16T07:42:01.053Z,2.10
2022-10-16T07:44:30.777Z,2.10
2022-10-16T07:46:58.843Z,1.27
2022-10-16T07:49:27.548Z,1.50
2022-10-16T07:51:55.631Z,1.58
2022-10-16T07:54:24.328Z,1.45
2022-10-16T07:56:52.386Z,1.87
2022-10-16T07:59:20.955Z,1.55
2022-10-16T08:01:51.914Z,1.60
2022-10-16T08:04:20.253Z,1.70
2022-10-16T08:06:49.421Z,1.73
2022-10-16T08:09:17.478Z,1.85
2022-10-16T08:11:45.387Z,1.70
2022-10-16T08:14:14.278Z,2.00
2022-10-16T08:16:42.337Z,1.70
2022-10-16T08:19:12.356Z,1.98
2022-10-16T08:21:40.440Z,1.67
2022-10-16T08:24:09.571Z,1.80
2022-10-16T08:26:37.649Z,1.70
2022-10-16T08:29:05.865Z,1.83
2022-10-16T08:31:34.183Z,1.73
2022-10-16T08:34:03.100Z,1.33
2022-10-16T08:36:32.628Z,2.17
2022-10-16T08:39:00.743Z,2.05
2022-10-16T08:42:13.212Z,2.22
2022-10-16T08:45:18.928Z,1.90
2022-10-16T08:48:02.424Z,1.77
2022-10-16T08:50:35.365Z,1.60
2022-10-16T08:53:08.408Z,2.00
2022-10-16T08:55:45.046Z,2.00
2022-10-16T08:58:17.106Z,1.20
2022-10-16T09:00:49.271Z,1.45
2022-10-16T09:03:35.481Z,1.50
2022-10-16T09:06:20.322Z,1.65
2022-10-16T09:09:07.310Z,1.42
2022-10-16T09:11:48.957Z,1.48
2022-10-16T09:14:42.586Z,1.20
2022-10-16T09:17:39.316Z,1.40
2022-10-16T09:20:26.133Z,1.40
2022-10-16T09:23:12.625Z,1.40
2022-10-16T09:25:46.234Z,1.27
2022-10-16T09:28:14.589Z,1.30
2022-10-16T09:30:42.956Z,1.70
2022-10-16T09:33:13.953Z,1.40
2022-10-16T09:35:45.442Z,1.50
2022-10-16T09:38:25.815Z,1.20
2022-10-16T09:41:02.484Z,0.98
2022-10-16T09:43:41.284Z,1.10
2022-10-16T09:46:23.263Z,1.30
2022-10-16T09:48:56.237Z,1.35
2022-10-16T09:51:27.789Z,1.40
2022-10-16T09:54:02.985Z,1.33
2022-10-16T09:56:36.597Z,1.30
2022-10-16T09:59:14.895Z,1.42
2022-10-16T10:01:48.480Z,1.58
2022-10-16T10:04:17.055Z,1.38
2022-10-16T10:06:48.829Z,1.05
2022-10-16T10:09:22.484Z,1.33
2022-10-16T10:11:56.190Z,1.70
2022-10-16T10:14:37.490Z,1.70
2022-10-16T10:17:17.948Z,1.52
2022-10-16T10:19:53.563Z,1.58
2022-10-16T10:22:29.217Z,1.48
2022-10-16T10:25:21.759Z,1.38
2022-10-16T10:28:08.855Z,1.38
2022-10-16T10:30:46.745Z,1.65
2022-10-16T10:33:30.924Z,0.90
2022-10-16T10:36:14.636Z,1.63
2022-10-16T10:38:52.688Z,1.10
2022-10-16T10:42:09.848Z,1.00
2022-10-16T10:45:02.040Z,1.42
2022-10-16T10:47:48.871Z,1.25
2022-10-16T10:50:28.613Z,1.15
2022-10-16T10:53:11.376Z,1.38
2022-10-16T10:55:46.580Z,1.15
2022-10-16T10:58:57.466Z,0.95
2022-10-16T11:01:41.275Z,1.30
2022-10-16T11:05:02.349Z,1.20
2022-10-16T11:07:36.753Z,1.42
2022-10-16T11:10:16.308Z,1.10
2022-10-16T11:12:50.379Z,1.10
2022-10-16T11:15:27.197Z,1.10
2022-10-16T11:18:08.349Z,1.35
2022-10-16T11:20:44.234Z,1.55
2022-10-16T11:23:20.988Z,1.48
2022-10-16T11:25:51.810Z,1.33
2022-10-16T11:28:29.327Z,1.38
2022-10-16T11:31:09.586Z,1.20
2022-10-16T11:33:45.421Z,1.40
2022-10-16T11:36:23.627Z,1.45
2022-10-16T11:39:01.201Z,1.10
2022-10-16T11:41:36.792Z,1.10
2022-10-16T11:44:36.559Z,1.13
2022-10-16T11:47:53.906Z,1.23
2022-10-16T11:50:26.897Z,1.20
2022-10-16T11:53:04.509Z,1.38
2022-10-16T11:55:41.766Z,1.25
2022-10-16T11:58:29.479Z,1.17
2022-10-16T12:01:12.912Z,0.85
2022-10-16T12:03:51.508Z,1.42
2022-10-16T12:06:36.060Z,1.30
2022-10-16T12:09:05.956Z,1.33
2022-10-16T12:11:38.505Z,1.45
2022-10-16T12:14:24.970Z,1.33
2022-10-16T12:16:56.870Z,1.10
2022-10-16T12:19:27.762Z,1.05
2022-10-16T12:22:00.781Z,1.45
2022-10-16T12:24:41.959Z,1.25
2022-10-16T12:27:32.025Z,1.27
2022-10-16T12:30:03.717Z,1.48
2022-10-16T12:32:51.775Z,1.30
2022-10-16T12:35:24.764Z,1.42
2022-10-16T12:37:55.419Z,1.40
2022-10-16T12:40:32.386Z,1.48
2022-10-16T12:43:01.326Z,1.50
2022-10-16T12:45:33.262Z,1.77
2022-10-16T12:48:03.907Z,2.60
2022-10-16T12:50:38.023Z,2.40
2022-10-16T12:53:22.470Z,1.60
2022-10-16T12:56:09.025Z,2.35
2022-10-16T12:59:08.654Z,2.75
2022-10-16T13:01:56.668Z,3.53
2022-10-16T13:04:51.790Z,3.13
2022-10-16T13:07:50.546Z,2.17
2022-10-16T13:10:30.542Z,1.60
2022-10-16T13:13:24.594Z,2.25
2022-10-16T13:16:11.131Z,1.63
2022-10-16T13:18:57.501Z,2.03
2022-10-16T13:21:41.624Z,1.92
2022-10-16T13:24:28.696Z,3.60
2022-10-16T13:27:09.425Z,1.98
2022-10-16T13:29:38.127Z,2.28
2022-10-16T13:32:13.907Z,1.67
2022-10-16T13:34:47.925Z,2.65
2022-10-16T13:37:22.682Z,1.77
2022-10-16T13:39:51.782Z,2.10
2022-10-16T13:42:30.089Z,1.63
2022-10-16T13:44:58.986Z,1.63
2022-10-16T13:47:30.302Z,1.73
2022-10-16T13:50:04.210Z,1.60
2022-10-16T13:52:32.828Z,1.48
2022-10-16T13:55:02.337Z,1.73
2022-10-16T13:57:32.540Z,2.00
2022-10-16T14:00:00.848Z,1.48
2022-10-16T14:02:36.078Z,1.98
2022-10-16T14:05:06.451Z,1.70
2022-10-16T14:07:36.686Z,1.70
2022-10-16T14:10:09.467Z,1.67
2022-10-16T14:12:39.005Z,1.58
2022-10-16T14:15:19.638Z,1.55
2022-10-16T14:17:53.631Z,1.80
2022-10-16T14:20:28.494Z,1.73
2022-10-16T14:23:06.724Z,1.73
2022-10-16T14:25:35.577Z,2.25
2022-10-16T14:28:18.899Z,4.82
2022-10-16T14:30:56.555Z,7.57
2022-10-16T14:33:34.596Z,7.95
2022-10-16T14:36:07.837Z,3.10
2022-10-16T14:38:36.481Z,2.35
2022-10-16T14:41:06.702Z,2.90
2022-10-16T14:43:41.362Z,4.40
2022-10-16T14:46:16.288Z,5.50
2022-10-16T14:48:48.311Z,7.85
2022-10-16T14:51:18.346Z,7.25
2022-10-16T14:53:46.880Z,10.23
2022-10-16T14:56:21.393Z,6.07
2022-10-16T14:58:54.011Z,5.88
2022-10-16T15:01:22.655Z,4.82
2022-10-16T15:03:53.659Z,3.33
2022-10-16T15:06:22.087Z,2.33
2022-10-16T15:08:50.749Z,2.35
2022-10-16T15:11:22.115Z,2.42
2022-10-16T15:13:51.573Z,2.78
2022-10-16T15:16:20.405Z,3.05
2022-10-16T15:18:48.677Z,3.67
2022-10-16T15:21:27.766Z,3.55
2022-10-16T15:23:57.757Z,2.50
2022-10-16T15:26:26.992Z,2.35
2022-10-16T15:28:57.950Z,2.10
2022-10-16T15:31:26.742Z,2.40
2022-10-16T15:33:59.328Z,2.35
2022-10-16T15:36:29.577Z,2.33
2022-10-16T15:38:59.169Z,2.15
2022-10-16T15:41:27.628Z,2.10
2022-10-16T15:43:57.906Z,2.20
2022-10-16T15:46:27.516Z,1.88
2022-10-16T15:49:00.853Z,1.77
2022-10-16T15:51:30.717Z,2.28
2022-10-16T15:53:59.922Z,2.10
2022-10-16T15:56:29.388Z,1.92
2022-10-16T15:58:59.246Z,2.00
2022-10-16T16:01:28.656Z,2.03
2022-10-16T16:03:57.467Z,2.05
2022-10-16T16:06:25.737Z,1.88
2022-10-16T16:08:54.810Z,1.90
2022-10-16T16:11:24.601Z,2.00
2022-10-16T16:13:53.369Z,1.80
2022-10-16T16:16:22.812Z,2.17
2022-10-16T16:18:55.530Z,2.40
2022-10-16T16:21:24.186Z,3.13
2022-10-16T16:23:52.580Z,3.97
2022-10-16T16:26:27.624Z,3.08
2022-10-16T16:28:57.931Z,2.83
2022-10-16T16:31:29.552Z,2.65
2022-10-16T16:33:58.845Z,4.30
2022-10-16T16:36:27.927Z,3.78
2022-10-16T16:38:56.020Z,3.13
2022-10-16T16:41:27.526Z,2.72
2022-10-16T16:43:56.639Z,3.17
2022-10-16T16:46:25.210Z,3.40
2022-10-16T16:48:56.424Z,3.13
2022-10-16T16:51:25.127Z,3.30
2022-10-16T16:53:56.044Z,2.97
2022-10-16T16:56:26.297Z,3.03
2022-10-16T16:58:56.824Z,3.65
2022-10-16T17:01:28.658Z,3.17
2022-10-16T17:04:00.412Z,3.10
2022-10-16T17:06:31.232Z,3.17
2022-10-16T17:09:03.624Z,3.25
2022-10-16T17:11:32.671Z,3.30
2022-10-16T17:14:03.583Z,3.88
2022-10-16T17:16:36.242Z,4.55
2022-10-16T17:19:09.557Z,5.20
2022-10-16T17:21:39.062Z,4.68
2022-10-16T17:24:08.224Z,3.80
2022-10-16T17:26:38.273Z,4.45
2022-10-16T17:29:07.249Z,4.00
2022-10-16T17:31:38.373Z,3.85
2022-10-16T17:34:12.095Z,3.90
2022-10-16T17:36:43.960Z,5.03
2022-10-16T17:39:18.395Z,5.07
2022-10-16T17:41:47.155Z,4.40
2022-10-16T17:44:20.550Z,3.95
2022-10-16T17:46:50.491Z,3.80
2022-10-16T17:49:22.069Z,4.68
2022-10-16T17:51:52.324Z,5.18
2022-10-16T17:54:21.934Z,4.88
2022-10-16T17:56:50.557Z,5.07
2022-10-16T17:59:22.861Z,6.65
2022-10-16T18:01:52.788Z,6.50
2022-10-16T18:04:22.368Z,7.20
2022-10-16T18:06:50.476Z,5.50
2022-10-16T18:09:21.089Z,5.32
2022-10-16T18:11:52.761Z,5.33
2022-10-16T18:14:20.936Z,5.60
2022-10-16T18:19:25.130Z,5.87
2022-10-16T18:21:55.766Z,8.47
2022-10-16T18:24:25.503Z,7.43
2022-10-16T18:26:57.501Z,6.70
2022-10-16T18:29:28.128Z,9.17
2022-10-16T18:31:57.683Z,7.17
2022-10-16T18:34:27.905Z,6.60
2022-10-16T18:36:57.465Z,6.43
2022-10-16T18:39:25.942Z,7.87
2022-10-16T18:41:59.469Z,8.87
2022-10-16T18:44:28.659Z,7.87
2022-10-16T18:46:59.039Z,7.83
2022-10-16T18:49:29.573Z,8.50
2022-10-16T18:51:58.594Z,8.47
2022-10-16T18:54:26.609Z,10.30
2022-10-16T18:56:55.219Z,8.40
2022-10-16T18:59:26.181Z,8.33
2022-10-16T19:01:55.154Z,9.27
2022-10-16T19:04:23.936Z,10.30
2022-10-16T19:06:55.996Z,12.90
2022-10-16T19:09:25.998Z,10.90
2022-10-16T19:11:54.716Z,11.60
2022-10-16T19:14:23.195Z,9.73
2022-10-16T19:16:51.345Z,8.73
2022-10-16T19:19:20.330Z,8.13
2022-10-16T19:21:52.746Z,7.83
2022-10-16T19:24:22.185Z,7.93
2022-10-16T19:26:50.302Z,18.13
2022-10-16T19:29:18.778Z,10.70
2022-10-16T19:31:48.938Z,9.33
2022-10-16T19:34:18.283Z,9.40
2022-10-16T19:36:46.638Z,6.30
2022-10-16T19:39:18.047Z,7.27
2022-10-16T19:41:48.271Z,6.43
2022-10-16T19:44:18.544Z,6.13
2022-10-16T19:46:48.793Z,5.00
2022-10-16T19:49:21.644Z,4.87
2022-10-16T19:51:54.411Z,5.03
2022-10-16T19:54:22.869Z,7.10
2022-10-16T19:56:52.323Z,3.17
2022-10-16T19:59:20.508Z,3.40
2022-10-16T20:01:49.192Z,4.07
2022-10-16T20:04:17.622Z,3.80
2022-10-16T20:06:46.147Z,5.23
2022-10-16T20:09:14.835Z,6.43
2022-10-16T20:11:43.151Z,5.73
2022-10-16T20:14:12.786Z,6.50
2022-10-16T20:16:41.381Z,7.40
2022-10-16T20:19:09.504Z,13.63
2022-10-16T20:21:38.952Z,20.53
2022-10-16T20:24:08.575Z,25.70
2022-10-16T20:26:38.175Z,23.57
2022-10-16T20:29:07.327Z,7.87
2022-10-16T20:31:37.447Z,8.13
2022-10-16T20:34:11.364Z,6.60
2022-10-16T20:36:43.836Z,5.40
2022-10-16T20:39:14.687Z,5.03
2022-10-16T20:41:42.918Z,4.50
2022-10-16T20:44:11.022Z,4.77
2022-10-16T20:46:41.618Z,4.27
2022-10-16T20:49:11.634Z,3.30
2022-10-16T20:51:51.097Z,2.93
2022-10-16T20:54:19.393Z,3.43
2022-10-16T20:56:47.338Z,2.40
2022-10-16T20:59:16.044Z,5.20
2022-10-16T21:01:45.485Z,2.10
2022-10-16T21:04:14.280Z,1.67
2022-10-16T21:06:42.764Z,2.20
2022-10-16T21:09:11.374Z,1.57
2022-10-16T21:11:40.121Z,1.80
2022-10-16T21:14:10.071Z,1.93
2022-10-16T21:16:38.620Z,1.92
2022-10-16T21:19:09.587Z,1.70
2022-10-16T21:21:40.198Z,1.67
2022-10-16T21:24:12.286Z,1.47
2022-10-16T21:26:43.531Z,1.40
2022-10-16T21:29:12.181Z,2.23
2022-10-16T21:31:40.916Z,1.60
2022-10-16T21:34:11.393Z,2.20
2022-10-16T21:36:43.107Z,1.97
2022-10-16T21:39:15.837Z,2.50
2022-10-16T21:41:46.973Z,2.23
2022-10-16T21:44:16.664Z,2.33
2022-10-16T21:46:47.482Z,2.47
2022-10-16T21:49:20.306Z,2.20
2022-10-16T21:51:51.990Z,1.90
2022-10-16T21:54:23.977Z,1.80
2022-10-16T21:56:53.318Z,1.80
2022-10-16T21:59:22.384Z,1.50
2022-10-16T22:01:54.060Z,1.80
2022-10-16T22:04:23.657Z,1.67
2022-10-16T22:06:52.421Z,1.90
2022-10-16T22:09:20.522Z,1.80
2022-10-16T22:11:50.486Z,1.90
2022-10-16T22:14:21.571Z,1.67
2022-10-16T22:16:51.376Z,2.13
2022-10-16T22:19:24.334Z,2.30
2022-10-16T22:21:57.143Z,1.73
2022-10-16T22:24:26.196Z,2.10
2022-10-16T22:26:54.857Z,2.53
2022-10-16T22:29:23.608Z,2.10
2022-10-16T22:31:54.250Z,2.20
2022-10-16T22:34:23.655Z,2.60
2022-10-16T22:36:52.410Z,2.03
2022-10-16T22:39:20.953Z,2.10
2022-10-16T22:41:49.430Z,1.70
2022-10-16T22:44:17.512Z,2.00
2022-10-16T22:46:45.720Z,1.80
2022-10-16T22:49:13.765Z,2.30
2022-10-16T22:51:43.718Z,1.80
2022-10-16T22:54:12.109Z,2.50
2022-10-16T22:56:40.379Z,2.70
2022-10-16T22:59:09.012Z,3.33
2022-10-16T23:01:40.929Z,3.63
2022-10-16T23:04:10.338Z,4.23
2022-10-16T23:06:38.610Z,3.90
2022-10-16T23:09:08.808Z,3.30
2022-10-16T23:11:36.847Z,2.97
2022-10-16T23:14:05.635Z,2.80
2022-10-16T23:16:33.726Z,3.00
2022-10-16T23:19:01.865Z,2.23
2022-10-16T23:21:30.113Z,2.50
2022-10-16T23:23:58.182Z,2.60
2022-10-16T23:26:29.162Z,2.60
2022-10-16T23:28:59.369Z,2.50
2022-10-16T23:31:30.069Z,2.90
2022-10-16T23:33:59.706Z,2.80
2022-10-16T23:36:27.849Z,2.50
2022-10-16T23:38:56.726Z,1.90
2022-10-16T23:41:25.490Z,1.70
2022-10-16T23:43:55.178Z,2.00
2022-10-16T23:48:56.510Z,1.67
2022-10-16T23:51:24.677Z,1.53
2022-10-16T23:53:54.317Z,1.60
